sensor_id;sensor_type;location;lat;lon;timestamp;P1;durP1;ratioP1;P2;durP2;ratioP2
56481;SDS011;42384;45.186;19.958;2022-12-16T00:00:03;42.78;;;29.02;;
56481;SDS011;42384;45.186;19.958;2022-12-16T00:02:29;44.08;;;28.77;;
56481;SDS011;42384;45.186;19.958;2022-12-16T00:04:55;44.13;;;28.10;;
56481;SDS011;42384;45.186;19.958;2022-12-16T00:07:22;41.88;;;28.42;;
56481;SDS011;42384;45.186;19.958;2022-12-16T00:09:48;41.47;;;28.38;;
56481;SDS011;42384;45.186;19.958;2022-12-16T00:12:14;46.33;;;28.38;;
56481;SDS011;42384;45.186;19.958;2022-12-16T00:14:40;44.65;;;29.02;;
56481;SDS011;42384;45.186;19.958;2022-12-16T00:17:07;41.17;;;26.40;;
56481;SDS011;42384;45.186;19.958;2022-12-16T00:19:33;39.38;;;27.08;;
56481;SDS011;42384;45.186;19.958;2022-12-16T00:21:59;39.07;;;26.90;;
56481;SDS011;42384;45.186;19.958;2022-12-16T00:24:25;38.10;;;27.83;;
56481;SDS011;42384;45.186;19.958;2022-12-16T00:26:51;37.70;;;26.60;;
56481;SDS011;42384;45.186;19.958;2022-12-16T00:29:17;46.50;;;27.95;;
56481;SDS011;42384;45.186;19.958;2022-12-16T00:31:43;39.80;;;26.98;;
56481;SDS011;42384;45.186;19.958;2022-12-16T00:34:12;33.78;;;25.08;;
56481;SDS011;42384;45.186;19.958;2022-12-16T00:36:39;39.55;;;25.92;;
56481;SDS011;42384;45.186;19.958;2022-12-16T00:39:05;37.47;;;25.00;;
56481;SDS011;42384;45.186;19.958;2022-12-16T00:41:31;39.67;;;25.03;;
56481;SDS011;42384;45.186;19.958;2022-12-16T00:43:57;38.08;;;25.38;;
56481;SDS011;42384;45.186;19.958;2022-12-16T00:46:23;33.88;;;23.85;;
56481;SDS011;42384;45.186;19.958;2022-12-16T00:48:49;35.65;;;25.55;;
56481;SDS011;42384;45.186;19.958;2022-12-16T00:51:15;38.00;;;25.05;;
56481;SDS011;42384;45.186;19.958;2022-12-16T00:53:42;39.15;;;25.30;;
56481;SDS011;42384;45.186;19.958;2022-12-16T00:56:08;38.75;;;25.23;;
56481;SDS011;42384;45.186;19.958;2022-12-16T00:58:35;37.42;;;24.42;;
56481;SDS011;42384;45.186;19.958;2022-12-16T01:01:02;39.78;;;25.90;;
56481;SDS011;42384;45.186;19.958;2022-12-16T01:03:28;38.63;;;25.90;;
56481;SDS011;42384;45.186;19.958;2022-12-16T01:05:54;38.57;;;25.53;;
56481;SDS011;42384;45.186;19.958;2022-12-16T01:08:20;36.42;;;24.95;;
56481;SDS011;42384;45.186;19.958;2022-12-16T01:10:53;34.20;;;23.55;;
56481;SDS011;42384;45.186;19.958;2022-12-16T01:13:20;34.67;;;23.85;;
56481;SDS011;42384;45.186;19.958;2022-12-16T01:15:46;32.85;;;23.35;;
56481;SDS011;42384;45.186;19.958;2022-12-16T01:18:13;33.17;;;23.87;;
56481;SDS011;42384;45.186;19.958;2022-12-16T01:20:39;35.92;;;23.55;;
56481;SDS011;42384;45.186;19.958;2022-12-16T01:23:05;32.13;;;23.25;;
56481;SDS011;42384;45.186;19.958;2022-12-16T01:25:31;35.08;;;22.00;;
56481;SDS011;42384;45.186;19.958;2022-12-16T01:27:57;31.02;;;22.10;;
56481;SDS011;42384;45.186;19.958;2022-12-16T01:30:23;35.00;;;21.35;;
56481;SDS011;42384;45.186;19.958;2022-12-16T01:32:50;28.17;;;19.80;;
56481;SDS011;42384;45.186;19.958;2022-12-16T01:35:16;31.67;;;20.77;;
56481;SDS011;42384;45.186;19.958;2022-12-16T01:37:42;33.55;;;20.77;;
56481;SDS011;42384;45.186;19.958;2022-12-16T01:40:15;28.85;;;19.83;;
56481;SDS011;42384;45.186;19.958;2022-12-16T01:42:43;31.98;;;21.58;;
56481;SDS011;42384;45.186;19.958;2022-12-16T01:48:31;37.78;;;21.58;;
56481;SDS011;42384;45.186;19.958;2022-12-16T01:50:55;33.42;;;20.17;;
56481;SDS011;42384;45.186;19.958;2022-12-16T01:53:24;29.67;;;18.80;;
56481;SDS011;42384;45.186;19.958;2022-12-16T01:55:50;28.85;;;18.33;;
56481;SDS011;42384;45.186;19.958;2022-12-16T02:00:43;29.40;;;18.77;;
56481;SDS011;42384;45.186;19.958;2022-12-16T02:03:09;25.25;;;17.25;;
56481;SDS011;42384;45.186;19.958;2022-12-16T02:05:37;25.97;;;17.23;;
56481;SDS011;42384;45.186;19.958;2022-12-16T02:08:13;25.63;;;17.25;;
56481;SDS011;42384;45.186;19.958;2022-12-16T02:28:52;21.77;;;12.70;;
56481;SDS011;42384;45.186;19.958;2022-12-16T02:33:59;21.20;;;13.93;;
56481;SDS011;42384;45.186;19.958;2022-12-16T02:47:09;24.70;;;14.65;;
56481;SDS011;42384;45.186;19.958;2022-12-16T02:52:08;21.50;;;14.10;;
56481;SDS011;42384;45.186;19.958;2022-12-16T02:54:35;21.17;;;13.20;;
56481;SDS011;42384;45.186;19.958;2022-12-16T02:57:08;22.87;;;13.60;;
56481;SDS011;42384;45.186;19.958;2022-12-16T03:02:29;17.73;;;11.88;;
56481;SDS011;42384;45.186;19.958;2022-12-16T03:05:03;20.88;;;12.45;;
56481;SDS011;42384;45.186;19.958;2022-12-16T03:07:31;16.63;;;11.70;;
56481;SDS011;42384;45.186;19.958;2022-12-16T03:09:58;17.52;;;12.30;;
56481;SDS011;42384;45.186;19.958;2022-12-16T03:12:25;18.38;;;12.43;;
56481;SDS011;42384;45.186;19.958;2022-12-16T03:14:52;18.50;;;12.63;;
56481;SDS011;42384;45.186;19.958;2022-12-16T03:17:20;19.90;;;13.25;;
56481;SDS011;42384;45.186;19.958;2022-12-16T03:19:48;18.92;;;12.63;;
56481;SDS011;42384;45.186;19.958;2022-12-16T03:22:25;20.00;;;12.70;;
56481;SDS011;42384;45.186;19.958;2022-12-16T03:27:20;18.83;;;11.10;;
56481;SDS011;42384;45.186;19.958;2022-12-16T03:32:21;18.30;;;11.97;;
56481;SDS011;42384;45.186;19.958;2022-12-16T03:34:50;17.50;;;12.10;;
56481;SDS011;42384;45.186;19.958;2022-12-16T03:37:18;15.80;;;10.05;;
56481;SDS011;42384;45.186;19.958;2022-12-16T03:39:46;17.85;;;11.20;;
56481;SDS011;42384;45.186;19.958;2022-12-16T03:42:13;16.52;;;10.82;;
56481;SDS011;42384;45.186;19.958;2022-12-16T03:44:41;15.70;;;10.10;;
56481;SDS011;42384;45.186;19.958;2022-12-16T03:47:08;19.60;;;11.65;;
56481;SDS011;42384;45.186;19.958;2022-12-16T03:49:35;17.65;;;11.85;;
56481;SDS011;42384;45.186;19.958;2022-12-16T03:52:01;16.33;;;11.60;;
56481;SDS011;42384;45.186;19.958;2022-12-16T03:54:28;18.13;;;11.73;;
56481;SDS011;42384;45.186;19.958;2022-12-16T03:56:54;18.60;;;11.98;;
56481;SDS011;42384;45.186;19.958;2022-12-16T03:59:20;19.08;;;11.98;;
56481;SDS011;42384;45.186;19.958;2022-12-16T04:01:47;17.25;;;11.38;;
56481;SDS011;42384;45.186;19.958;2022-12-16T04:04:14;19.17;;;12.02;;
56481;SDS011;42384;45.186;19.958;2022-12-16T04:06:40;19.15;;;12.18;;
56481;SDS011;42384;45.186;19.958;2022-12-16T04:09:06;17.10;;;11.17;;
56481;SDS011;42384;45.186;19.958;2022-12-16T04:11:33;20.47;;;10.70;;
56481;SDS011;42384;45.186;19.958;2022-12-16T04:14:18;20.85;;;11.63;;
56481;SDS011;42384;45.186;19.958;2022-12-16T04:17:16;22.27;;;12.82;;
56481;SDS011;42384;45.186;19.958;2022-12-16T04:20:01;16.27;;;10.85;;
56481;SDS011;42384;45.186;19.958;2022-12-16T04:22:46;21.02;;;12.35;;
56481;SDS011;42384;45.186;19.958;2022-12-16T04:25:31;19.17;;;11.88;;
56481;SDS011;42384;45.186;19.958;2022-12-16T04:27:59;20.95;;;12.25;;
56481;SDS011;42384;45.186;19.958;2022-12-16T04:30:26;19.73;;;10.70;;
56481;SDS011;42384;45.186;19.958;2022-12-16T04:35:37;15.43;;;10.23;;
56481;SDS011;42384;45.186;19.958;2022-12-16T04:38:22;21.58;;;11.05;;
56481;SDS011;42384;45.186;19.958;2022-12-16T04:41:07;18.15;;;10.20;;
56481;SDS011;42384;45.186;19.958;2022-12-16T04:43:52;16.63;;;10.98;;
56481;SDS011;42384;45.186;19.958;2022-12-16T04:46:37;16.20;;;10.20;;
56481;SDS011;42384;45.186;19.958;2022-12-16T04:49:22;15.85;;;10.48;;
56481;SDS011;42384;45.186;19.958;2022-12-16T04:52:07;15.77;;;9.98;;
56481;SDS011;42384;45.186;19.958;2022-12-16T04:54:52;15.32;;;9.35;;
56481;SDS011;42384;45.186;19.958;2022-12-16T04:57:38;17.77;;;11.35;;
56481;SDS011;42384;45.186;19.958;2022-12-16T05:00:23;17.70;;;10.23;;
56481;SDS011;42384;45.186;19.958;2022-12-16T05:03:08;19.83;;;10.02;;
56481;SDS011;42384;45.186;19.958;2022-12-16T05:05:53;15.43;;;8.90;;
56481;SDS011;42384;45.186;19.958;2022-12-16T05:08:37;14.30;;;8.85;;
56481;SDS011;42384;45.186;19.958;2022-12-16T05:11:23;19.50;;;10.50;;
56481;SDS011;42384;45.186;19.958;2022-12-16T05:14:07;19.30;;;10.25;;
56481;SDS011;42384;45.186;19.958;2022-12-16T05:16:52;16.02;;;9.65;;
56481;SDS011;42384;45.186;19.958;2022-12-16T05:19:37;21.52;;;10.05;;
56481;SDS011;42384;45.186;19.958;2022-12-16T05:22:22;17.58;;;11.05;;
56481;SDS011;42384;45.186;19.958;2022-12-16T05:25:07;15.88;;;10.95;;
56481;SDS011;42384;45.186;19.958;2022-12-16T05:27:52;22.77;;;10.18;;
56481;SDS011;42384;45.186;19.958;2022-12-16T05:30:37;19.60;;;11.50;;
56481;SDS011;42384;45.186;19.958;2022-12-16T05:33:22;20.23;;;10.63;;
56481;SDS011;42384;45.186;19.958;2022-12-16T05:36:07;22.15;;;9.82;;
56481;SDS011;42384;45.186;19.958;2022-12-16T05:38:52;26.05;;;8.95;;
56481;SDS011;42384;45.186;19.958;2022-12-16T05:41:38;14.20;;;7.78;;
56481;SDS011;42384;45.186;19.958;2022-12-16T05:44:23;13.52;;;6.85;;
56481;SDS011;42384;45.186;19.958;2022-12-16T05:47:08;15.63;;;7.45;;
56481;SDS011;42384;45.186;19.958;2022-12-16T05:49:53;15.10;;;6.03;;
56481;SDS011;42384;45.186;19.958;2022-12-16T05:52:38;13.40;;;6.00;;
56481;SDS011;42384;45.186;19.958;2022-12-16T05:55:23;12.13;;;4.90;;
56481;SDS011;42384;45.186;19.958;2022-12-16T05:58:08;8.43;;;5.00;;
56481;SDS011;42384;45.186;19.958;2022-12-16T06:00:53;7.45;;;4.95;;
56481;SDS011;42384;45.186;19.958;2022-12-16T06:03:37;9.88;;;4.70;;
56481;SDS011;42384;45.186;19.958;2022-12-16T06:06:22;10.90;;;5.70;;
56481;SDS011;42384;45.186;19.958;2022-12-16T06:09:07;12.70;;;5.93;;
56481;SDS011;42384;45.186;19.958;2022-12-16T06:11:52;11.82;;;5.55;;
56481;SDS011;42384;45.186;19.958;2022-12-16T06:14:37;12.57;;;6.20;;
56481;SDS011;42384;45.186;19.958;2022-12-16T06:17:22;10.05;;;5.30;;
56481;SDS011;42384;45.186;19.958;2022-12-16T06:20:07;9.02;;;5.38;;
56481;SDS011;42384;45.186;19.958;2022-12-16T06:22:52;8.80;;;5.10;;
56481;SDS011;42384;45.186;19.958;2022-12-16T06:25:37;12.32;;;5.88;;
56481;SDS011;42384;45.186;19.958;2022-12-16T06:28:21;10.43;;;6.45;;
56481;SDS011;42384;45.186;19.958;2022-12-16T06:31:06;10.50;;;5.32;;
56481;SDS011;42384;45.186;19.958;2022-12-16T06:33:51;11.27;;;6.75;;
56481;SDS011;42384;45.186;19.958;2022-12-16T06:36:36;13.75;;;7.57;;
56481;SDS011;42384;45.186;19.958;2022-12-16T06:39:21;11.60;;;6.40;;
56481;SDS011;42384;45.186;19.958;2022-12-16T06:42:06;12.02;;;5.90;;
56481;SDS011;42384;45.186;19.958;2022-12-16T06:44:51;10.85;;;6.20;;
56481;SDS011;42384;45.186;19.958;2022-12-16T06:47:41;10.27;;;6.00;;
56481;SDS011;42384;45.186;19.958;2022-12-16T06:50:27;14.02;;;6.90;;
56481;SDS011;42384;45.186;19.958;2022-12-16T06:53:12;14.18;;;8.57;;
56481;SDS011;42384;45.186;19.958;2022-12-16T06:55:57;13.90;;;7.68;;
56481;SDS011;42384;45.186;19.958;2022-12-16T06:58:42;12.50;;;6.90;;
56481;SDS011;42384;45.186;19.958;2022-12-16T07:01:27;11.65;;;7.70;;
56481;SDS011;42384;45.186;19.958;2022-12-16T07:04:12;15.48;;;8.63;;
56481;SDS011;42384;45.186;19.958;2022-12-16T07:06:57;13.93;;;6.90;;
56481;SDS011;42384;45.186;19.958;2022-12-16T07:09:42;12.10;;;7.47;;
56481;SDS011;42384;45.186;19.958;2022-12-16T07:12:26;12.15;;;7.82;;
56481;SDS011;42384;45.186;19.958;2022-12-16T07:15:12;14.63;;;7.50;;
56481;SDS011;42384;45.186;19.958;2022-12-16T07:17:57;12.63;;;7.35;;
56481;SDS011;42384;45.186;19.958;2022-12-16T07:20:42;16.63;;;7.95;;
56481;SDS011;42384;45.186;19.958;2022-12-16T07:23:26;14.10;;;7.50;;
56481;SDS011;42384;45.186;19.958;2022-12-16T07:26:11;15.32;;;7.65;;
56481;SDS011;42384;45.186;19.958;2022-12-16T07:28:56;10.43;;;7.05;;
56481;SDS011;42384;45.186;19.958;2022-12-16T07:31:41;11.30;;;6.00;;
56481;SDS011;42384;45.186;19.958;2022-12-16T07:34:26;14.18;;;6.32;;
56481;SDS011;42384;45.186;19.958;2022-12-16T07:37:10;12.85;;;5.40;;
56481;SDS011;42384;45.186;19.958;2022-12-16T07:39:55;7.80;;;4.93;;
56481;SDS011;42384;45.186;19.958;2022-12-16T07:42:41;9.23;;;4.50;;
56481;SDS011;42384;45.186;19.958;2022-12-16T07:45:26;6.75;;;4.43;;
56481;SDS011;42384;45.186;19.958;2022-12-16T07:48:11;8.18;;;5.07;;
56481;SDS011;42384;45.186;19.958;2022-12-16T07:50:56;10.27;;;5.35;;
56481;SDS011;42384;45.186;19.958;2022-12-16T07:53:41;12.05;;;5.35;;
56481;SDS011;42384;45.186;19.958;2022-12-16T07:56:26;9.43;;;4.72;;
56481;SDS011;42384;45.186;19.958;2022-12-16T07:59:11;9.10;;;5.63;;
56481;SDS011;42384;45.186;19.958;2022-12-16T08:01:55;9.77;;;5.88;;
56481;SDS011;42384;45.186;19.958;2022-12-16T08:04:40;9.25;;;5.40;;
56481;SDS011;42384;45.186;19.958;2022-12-16T08:07:25;7.90;;;4.80;;
56481;SDS011;42384;45.186;19.958;2022-12-16T08:10:10;8.55;;;5.07;;
56481;SDS011;42384;45.186;19.958;2022-12-16T08:13:01;8.40;;;4.72;;
56481;SDS011;42384;45.186;19.958;2022-12-16T08:15:46;7.28;;;3.80;;
56481;SDS011;42384;45.186;19.958;2022-12-16T08:18:31;4.55;;;2.55;;
56481;SDS011;42384;45.186;19.958;2022-12-16T08:21:16;5.30;;;3.50;;
56481;SDS011;42384;45.186;19.958;2022-12-16T08:24:01;4.97;;;2.80;;
56481;SDS011;42384;45.186;19.958;2022-12-16T08:26:46;6.65;;;3.78;;
56481;SDS011;42384;45.186;19.958;2022-12-16T08:29:31;10.32;;;5.43;;
56481;SDS011;42384;45.186;19.958;2022-12-16T08:32:16;11.57;;;5.95;;
56481;SDS011;42384;45.186;19.958;2022-12-16T08:35:01;9.45;;;5.15;;
56481;SDS011;42384;45.186;19.958;2022-12-16T08:37:46;11.43;;;6.82;;
56481;SDS011;42384;45.186;19.958;2022-12-16T08:40:31;9.77;;;6.43;;
56481;SDS011;42384;45.186;19.958;2022-12-16T08:43:16;9.30;;;6.15;;
56481;SDS011;42384;45.186;19.958;2022-12-16T08:46:01;9.93;;;5.13;;
56481;SDS011;42384;45.186;19.958;2022-12-16T08:48:46;15.65;;;6.97;;
56481;SDS011;42384;45.186;19.958;2022-12-16T08:51:31;11.48;;;6.20;;
56481;SDS011;42384;45.186;19.958;2022-12-16T08:54:16;11.05;;;5.70;;
56481;SDS011;42384;45.186;19.958;2022-12-16T08:57:01;9.20;;;5.90;;
56481;SDS011;42384;45.186;19.958;2022-12-16T08:59:46;13.25;;;6.50;;
56481;SDS011;42384;45.186;19.958;2022-12-16T09:02:31;15.68;;;7.32;;
56481;SDS011;42384;45.186;19.958;2022-12-16T09:05:15;10.73;;;7.32;;
56481;SDS011;42384;45.186;19.958;2022-12-16T09:08:01;12.35;;;7.50;;
56481;SDS011;42384;45.186;19.958;2022-12-16T09:10:46;13.48;;;7.85;;
56481;SDS011;42384;45.186;19.958;2022-12-16T09:13:31;11.38;;;7.15;;
56481;SDS011;42384;45.186;19.958;2022-12-16T09:16:16;9.68;;;5.97;;
56481;SDS011;42384;45.186;19.958;2022-12-16T09:19:01;12.23;;;7.13;;
56481;SDS011;42384;45.186;19.958;2022-12-16T09:21:46;11.30;;;6.65;;
56481;SDS011;42384;45.186;19.958;2022-12-16T09:24:31;11.55;;;7.40;;
56481;SDS011;42384;45.186;19.958;2022-12-16T09:27:16;17.00;;;7.85;;
56481;SDS011;42384;45.186;19.958;2022-12-16T09:30:01;15.98;;;8.23;;
56481;SDS011;42384;45.186;19.958;2022-12-16T09:32:46;14.23;;;8.32;;
56481;SDS011;42384;45.186;19.958;2022-12-16T09:35:31;14.40;;;7.82;;
56481;SDS011;42384;45.186;19.958;2022-12-16T09:38:15;14.57;;;7.57;;
56481;SDS011;42384;45.186;19.958;2022-12-16T09:41:16;15.93;;;6.97;;
56481;SDS011;42384;45.186;19.958;2022-12-16T09:44:05;13.63;;;6.75;;
56481;SDS011;42384;45.186;19.958;2022-12-16T09:49:55;12.70;;;6.97;;
56481;SDS011;42384;45.186;19.958;2022-12-16T09:52:43;11.18;;;6.35;;
56481;SDS011;42384;45.186;19.958;2022-12-16T09:58:14;14.00;;;7.70;;
56481;SDS011;42384;45.186;19.958;2022-12-16T10:00:59;15.43;;;7.22;;
56481;SDS011;42384;45.186;19.958;2022-12-16T10:03:45;11.07;;;7.55;;
56481;SDS011;42384;45.186;19.958;2022-12-16T10:06:46;16.92;;;8.50;;
56481;SDS011;42384;45.186;19.958;2022-12-16T10:12:25;12.10;;;7.97;;
56481;SDS011;42384;45.186;19.958;2022-12-16T10:15:30;13.57;;;7.97;;
56481;SDS011;42384;45.186;19.958;2022-12-16T10:21:22;11.43;;;8.02;;
56481;SDS011;42384;45.186;19.958;2022-12-16T10:24:15;14.00;;;8.68;;
56481;SDS011;42384;45.186;19.958;2022-12-16T10:27:13;12.73;;;9.15;;
56481;SDS011;42384;45.186;19.958;2022-12-16T10:29:58;16.48;;;9.82;;
56481;SDS011;42384;45.186;19.958;2022-12-16T10:32:45;16.27;;;9.10;;
56481;SDS011;42384;45.186;19.958;2022-12-16T10:35:33;16.10;;;10.73;;
56481;SDS011;42384;45.186;19.958;2022-12-16T10:41:04;14.82;;;8.70;;
56481;SDS011;42384;45.186;19.958;2022-12-16T10:44:19;18.02;;;8.80;;
56481;SDS011;42384;45.186;19.958;2022-12-16T10:47:05;16.63;;;8.07;;
56481;SDS011;42384;45.186;19.958;2022-12-16T10:49:52;15.45;;;8.00;;
56481;SDS011;42384;45.186;19.958;2022-12-16T10:52:48;15.43;;;8.53;;
56481;SDS011;42384;45.186;19.958;2022-12-16T10:58:23;12.95;;;8.63;;
56481;SDS011;42384;45.186;19.958;2022-12-16T11:01:26;16.35;;;9.68;;
56481;SDS011;42384;45.186;19.958;2022-12-16T11:04:30;18.05;;;9.00;;
56481;SDS011;42384;45.186;19.958;2022-12-16T11:07:26;12.80;;;8.70;;
56481;SDS011;42384;45.186;19.958;2022-12-16T11:10:24;16.05;;;9.18;;
56481;SDS011;42384;45.186;19.958;2022-12-16T11:13:20;16.25;;;9.73;;
56481;SDS011;42384;45.186;19.958;2022-12-16T11:16:06;16.80;;;10.32;;
56481;SDS011;42384;45.186;19.958;2022-12-16T11:18:51;14.00;;;9.18;;
56481;SDS011;42384;45.186;19.958;2022-12-16T11:21:36;15.02;;;9.35;;
56481;SDS011;42384;45.186;19.958;2022-12-16T11:24:21;15.30;;;9.80;;
56481;SDS011;42384;45.186;19.958;2022-12-16T11:27:12;12.02;;;8.52;;
56481;SDS011;42384;45.186;19.958;2022-12-16T11:32:51;14.98;;;8.90;;
56481;SDS011;42384;45.186;19.958;2022-12-16T11:35:39;14.25;;;8.57;;
56481;SDS011;42384;45.186;19.958;2022-12-16T11:38:26;16.65;;;9.88;;
56481;SDS011;42384;45.186;19.958;2022-12-16T11:41:45;15.02;;;8.68;;
56481;SDS011;42384;45.186;19.958;2022-12-16T11:44:29;16.33;;;9.90;;
56481;SDS011;42384;45.186;19.958;2022-12-16T11:47:33;15.27;;;9.15;;
56481;SDS011;42384;45.186;19.958;2022-12-16T11:50:19;12.30;;;8.05;;
56481;SDS011;42384;45.186;19.958;2022-12-16T11:53:04;16.98;;;9.20;;
56481;SDS011;42384;45.186;19.958;2022-12-16T11:55:51;18.75;;;9.52;;
56481;SDS011;42384;45.186;19.958;2022-12-16T11:58:47;12.93;;;8.18;;
56481;SDS011;42384;45.186;19.958;2022-12-16T12:01:36;14.18;;;8.32;;
56481;SDS011;42384;45.186;19.958;2022-12-16T12:04:23;18.10;;;8.43;;
56481;SDS011;42384;45.186;19.958;2022-12-16T12:12:57;19.13;;;8.07;;
56481;SDS011;42384;45.186;19.958;2022-12-16T12:18:35;12.88;;;8.02;;
56481;SDS011;42384;45.186;19.958;2022-12-16T12:24:51;14.88;;;8.93;;
56481;SDS011;42384;45.186;19.958;2022-12-16T12:30:21;12.73;;;8.93;;
56481;SDS011;42384;45.186;19.958;2022-12-16T12:36:13;15.32;;;9.25;;
56481;SDS011;42384;45.186;19.958;2022-12-16T12:39:10;12.48;;;7.38;;
56481;SDS011;42384;45.186;19.958;2022-12-16T12:48:12;12.98;;;8.65;;
56481;SDS011;42384;45.186;19.958;2022-12-16T12:57:00;16.38;;;8.63;;
56481;SDS011;42384;45.186;19.958;2022-12-16T12:59:48;14.88;;;8.70;;
56481;SDS011;42384;45.186;19.958;2022-12-16T13:02:52;15.50;;;8.65;;
56481;SDS011;42384;45.186;19.958;2022-12-16T13:05:38;17.48;;;9.30;;
56481;SDS011;42384;45.186;19.958;2022-12-16T13:11:14;17.48;;;9.80;;
56481;SDS011;42384;45.186;19.958;2022-12-16T13:13:59;23.50;;;10.05;;
56481;SDS011;42384;45.186;19.958;2022-12-16T13:26:04;14.98;;;9.43;;
56481;SDS011;42384;45.186;19.958;2022-12-16T13:28:27;15.93;;;9.35;;
56481;SDS011;42384;45.186;19.958;2022-12-16T13:31:13;14.75;;;9.82;;
56481;SDS011;42384;45.186;19.958;2022-12-16T13:34:02;20.90;;;11.77;;
56481;SDS011;42384;45.186;19.958;2022-12-16T13:36:56;13.93;;;10.32;;
56481;SDS011;42384;45.186;19.958;2022-12-16T13:39:42;18.67;;;10.55;;
56481;SDS011;42384;45.186;19.958;2022-12-16T13:45:32;19.85;;;11.30;;
56481;SDS011;42384;45.186;19.958;2022-12-16T13:48:39;20.85;;;11.35;;
56481;SDS011;42384;45.186;19.958;2022-12-16T13:51:58;18.98;;;11.88;;
56481;SDS011;42384;45.186;19.958;2022-12-16T13:54:36;16.35;;;10.68;;
56481;SDS011;42384;45.186;19.958;2022-12-16T13:57:25;17.08;;;10.80;;
56481;SDS011;42384;45.186;19.958;2022-12-16T14:00:19;19.10;;;10.98;;
56481;SDS011;42384;45.186;19.958;2022-12-16T14:03:08;15.50;;;11.13;;
56481;SDS011;42384;45.186;19.958;2022-12-16T14:05:54;16.98;;;11.40;;
56481;SDS011;42384;45.186;19.958;2022-12-16T14:08:39;19.17;;;10.18;;
56481;SDS011;42384;45.186;19.958;2022-12-16T14:11:29;18.70;;;10.82;;
56481;SDS011;42384;45.186;19.958;2022-12-16T14:14:23;18.67;;;11.20;;
56481;SDS011;42384;45.186;19.958;2022-12-16T14:17:12;14.65;;;10.85;;
56481;SDS011;42384;45.186;19.958;2022-12-16T14:25:32;16.33;;;11.50;;
56481;SDS011;42384;45.186;19.958;2022-12-16T14:28:38;15.88;;;11.27;;
56481;SDS011;42384;45.186;19.958;2022-12-16T14:31:40;17.23;;;10.82;;
56481;SDS011;42384;45.186;19.958;2022-12-16T14:34:26;14.40;;;10.18;;
56481;SDS011;42384;45.186;19.958;2022-12-16T14:37:15;16.55;;;10.95;;
56481;SDS011;42384;45.186;19.958;2022-12-16T14:40:00;16.00;;;10.27;;
56481;SDS011;42384;45.186;19.958;2022-12-16T14:42:45;15.07;;;10.57;;
56481;SDS011;42384;45.186;19.958;2022-12-16T14:45:34;13.55;;;10.57;;
56481;SDS011;42384;45.186;19.958;2022-12-16T14:56:57;15.85;;;10.85;;
56481;SDS011;42384;45.186;19.958;2022-12-16T14:59:42;17.25;;;11.60;;
56481;SDS011;42384;45.186;19.958;2022-12-16T15:02:32;23.88;;;15.43;;
56481;SDS011;42384;45.186;19.958;2022-12-16T15:05:33;21.85;;;15.02;;
56481;SDS011;42384;45.186;19.958;2022-12-16T15:08:20;17.92;;;12.18;;
56481;SDS011;42384;45.186;19.958;2022-12-16T15:11:06;19.15;;;11.75;;
56481;SDS011;42384;45.186;19.958;2022-12-16T15:13:53;69.55;;;44.05;;
56481;SDS011;42384;45.186;19.958;2022-12-16T15:16:40;28.42;;;21.50;;
56481;SDS011;42384;45.186;19.958;2022-12-16T15:19:25;19.45;;;15.45;;
56481;SDS011;42384;45.186;19.958;2022-12-16T15:22:14;24.45;;;17.58;;
56481;SDS011;42384;45.186;19.958;2022-12-16T15:25:00;19.20;;;14.00;;
56481;SDS011;42384;45.186;19.958;2022-12-16T15:27:52;17.88;;;12.45;;
56481;SDS011;42384;45.186;19.958;2022-12-16T15:30:41;22.20;;;15.18;;
56481;SDS011;42384;45.186;19.958;2022-12-16T15:33:29;21.15;;;14.07;;
56481;SDS011;42384;45.186;19.958;2022-12-16T15:36:22;19.73;;;12.77;;
56481;SDS011;42384;45.186;19.958;2022-12-16T15:39:14;19.63;;;12.98;;
56481;SDS011;42384;45.186;19.958;2022-12-16T15:42:01;24.08;;;13.02;;
56481;SDS011;42384;45.186;19.958;2022-12-16T15:44:46;21.95;;;13.63;;
56481;SDS011;42384;45.186;19.958;2022-12-16T15:47:34;20.20;;;12.25;;
56481;SDS011;42384;45.186;19.958;2022-12-16T15:50:20;20.80;;;12.48;;
56481;SDS011;42384;45.186;19.958;2022-12-16T15:56:44;21.55;;;13.70;;
56481;SDS011;42384;45.186;19.958;2022-12-16T15:59:25;20.08;;;12.45;;
56481;SDS011;42384;45.186;19.958;2022-12-16T16:02:12;20.08;;;13.13;;
56481;SDS011;42384;45.186;19.958;2022-12-16T16:04:58;22.70;;;14.20;;
56481;SDS011;42384;45.186;19.958;2022-12-16T16:07:43;20.75;;;13.32;;
56481;SDS011;42384;45.186;19.958;2022-12-16T16:10:28;21.65;;;12.95;;
56481;SDS011;42384;45.186;19.958;2022-12-16T16:13:13;20.65;;;11.77;;
56481;SDS011;42384;45.186;19.958;2022-12-16T16:15:58;22.05;;;13.15;;
56481;SDS011;42384;45.186;19.958;2022-12-16T16:18:43;22.13;;;13.40;;
56481;SDS011;42384;45.186;19.958;2022-12-16T16:21:36;17.70;;;12.80;;
56481;SDS011;42384;45.186;19.958;2022-12-16T16:24:21;20.30;;;13.90;;
56481;SDS011;42384;45.186;19.958;2022-12-16T16:27:07;19.42;;;13.45;;
56481;SDS011;42384;45.186;19.958;2022-12-16T16:29:53;22.40;;;14.30;;
56481;SDS011;42384;45.186;19.958;2022-12-16T16:32:38;21.63;;;14.02;;
56481;SDS011;42384;45.186;19.958;2022-12-16T16:35:23;23.90;;;14.70;;
56481;SDS011;42384;45.186;19.958;2022-12-16T16:38:09;26.95;;;14.63;;
56481;SDS011;42384;45.186;19.958;2022-12-16T16:40:54;22.23;;;12.93;;
56481;SDS011;42384;45.186;19.958;2022-12-16T16:43:39;20.25;;;12.77;;
56481;SDS011;42384;45.186;19.958;2022-12-16T16:49:19;20.48;;;12.88;;
56481;SDS011;42384;45.186;19.958;2022-12-16T16:52:06;23.02;;;13.57;;
56481;SDS011;42384;45.186;19.958;2022-12-16T16:54:53;21.45;;;13.32;;
56481;SDS011;42384;45.186;19.958;2022-12-16T16:57:37;21.33;;;13.20;;
56481;SDS011;42384;45.186;19.958;2022-12-16T17:00:22;18.67;;;11.80;;
56481;SDS011;42384;45.186;19.958;2022-12-16T17:03:07;22.55;;;12.23;;
56481;SDS011;42384;45.186;19.958;2022-12-16T17:06:02;17.63;;;11.25;;
56481;SDS011;42384;45.186;19.958;2022-12-16T17:08:47;22.95;;;11.77;;
56481;SDS011;42384;45.186;19.958;2022-12-16T17:11:32;20.48;;;12.35;;
56481;SDS011;42384;45.186;19.958;2022-12-16T17:14:18;23.23;;;11.98;;
56481;SDS011;42384;45.186;19.958;2022-12-16T17:17:03;18.65;;;11.55;;
56481;SDS011;42384;45.186;19.958;2022-12-16T17:19:48;20.52;;;11.90;;
56481;SDS011;42384;45.186;19.958;2022-12-16T17:22:33;20.05;;;11.65;;
56481;SDS011;42384;45.186;19.958;2022-12-16T17:25:18;19.67;;;12.30;;
56481;SDS011;42384;45.186;19.958;2022-12-16T17:28:04;25.58;;;11.90;;
56481;SDS011;42384;45.186;19.958;2022-12-16T17:30:48;19.75;;;11.80;;
56481;SDS011;42384;45.186;19.958;2022-12-16T17:33:33;20.55;;;12.63;;
56481;SDS011;42384;45.186;19.958;2022-12-16T17:36:17;19.10;;;11.35;;
56481;SDS011;42384;45.186;19.958;2022-12-16T17:39:03;18.27;;;12.18;;
56481;SDS011;42384;45.186;19.958;2022-12-16T17:41:48;21.70;;;12.15;;
56481;SDS011;42384;45.186;19.958;2022-12-16T17:44:33;22.33;;;12.45;;
56481;SDS011;42384;45.186;19.958;2022-12-16T17:47:18;21.00;;;12.23;;
56481;SDS011;42384;45.186;19.958;2022-12-16T17:50:03;21.80;;;12.70;;
56481;SDS011;42384;45.186;19.958;2022-12-16T17:52:52;25.50;;;13.05;;
56481;SDS011;42384;45.186;19.958;2022-12-16T17:55:36;25.10;;;12.30;;
56481;SDS011;42384;45.186;19.958;2022-12-16T17:58:28;19.20;;;11.90;;